Coral Ruby — 3ERR6 — position and weather

sailwx.info

Track history (hours):
 
Tides and Currents Weather Stations Pressure Air Temp Water Temp Dewpoint Dewpoint Depression Visibility Wind Speed Wind Dir Waves Ship Positions

Coral Ruby

Last reported at 2016-May-28 05:23 UTC. Time now 2016-May-31 00:11 UTC.
Position N 33°56' E 134°57'.

Length 225 m; draft 7.9 m.

Type: Ship. MMSI: 370150000.

Date/timePositionNaut miles runAvg speedWind from/ knotsBaromVisibWave heightAir tempDewpointWater temp
2016-May-28 05:23N 33°56' E 134°57'1112.9
2016-May-28 04:34N 34°06' E 134°57'1312.9
2016-May-28 03:33N 34°19' E 134°59'1414.0
2016-May-28 02:33N 34°32' E 135°05'8 8.0
2016-May-28 01:33N 34°36' E 134°57'10 9.0
2016-May-28 00:28N 34°37' E 134°45'7 0.8
2016-May-27 15:20N 34°42' E 134°50'0 0.0
2016-May-27 11:32N 34°42' E 134°50'0 0.0
2016-May-26 15:32N 34°43' E 134°50'0 0.0
2016-May-26 12:26N 34°42' E 134°50'0 0.0
2016-May-24 16:20N 34°42' E 134°50'0 0.0
2016-May-22 22:32N 34°42' E 134°50'0 0.0
2016-May-22 21:08N 34°42' E 134°50'0 0.0
2016-May-22 20:32N 34°42' E 134°50'0 0.0
2016-May-21 23:32N 34°43' E 134°50'4 1.3
2016-May-21 20:28N 34°40' E 134°47'0 0.0
2016-May-21 17:16N 34°40' E 134°47'0 0.1
2016-May-21 14:22N 34°40' E 134°47'0 0.1
2016-May-21 10:22N 34°40' E 134°47'0 0.0
2016-May-21 09:10N 34°40' E 134°47'0 0.1
2016-May-21 08:18N 34°40' E 134°47'4 5.4
2016-May-21 07:32N 34°36' E 134°44'10 8.9
2016-May-21 06:23N 34°36' E 134°56'7 8.8
2016-May-21 05:33N 34°35' E 135°05'6 6.0
2016-May-21 04:33N 34°30' E 135°07'1312.6
2016-May-21 03:33N 34°19' E 134°60'1110.8
2016-May-21 02:34N 34°08' E 134°59'1413.0
2016-May-21 01:28N 33°54' E 134°57'23710.6
2016-May-20 03:09N 34°41' E 139°38'812.3
2016-May-20 02:31N 34°43' E 139°47'1111.8
2016-May-20 01:33N 34°48' E 139°59'1211.4
2016-May-20 00:30N 34°54' E 140°12'1010.6
2016-May-19 23:33N 34°59' E 140°23'10 9.6
2016-May-19 22:30N 35°06' E 140°31'9 9.3
2016-May-19 21:31N 35°12' E 140°40'13 9.8
2016-May-19 20:13N 35°22' E 140°50'811.4
2016-May-19 19:33N 35°28' E 140°55'1211.9
2016-May-19 18:33N 35°37' E 141°04'1211.6
2016-May-19 17:33N 35°48' E 141°10'1212.0
2016-May-19 16:31N 35°60' E 141°15'1211.8
2016-May-19 15:32N 36°11' E 141°18'1212.1
2016-May-19 14:33N 36°22' E 141°23'  
Track history (hours):
 
Tides and Currents Weather Stations Pressure Air Temp Water Temp Dewpoint Dewpoint Depression Visibility Wind Speed Wind Dir Waves Ship Positions

Coral Ruby

Last reported at 2016-May-28 05:23 UTC. Time now 2016-May-31 00:11 UTC.
Position N 33°56' E 134°57'.

Length 225 m; draft 7.9 m.

Type: Ship. MMSI: 370150000.

Date/timePositionNaut miles runAvg speedWind from/ knotsBaromVisibWave heightAir tempDewpointWater temp
2016-May-28 05:23N 33°56' E 134°57'1112.9
2016-May-28 04:34N 34°06' E 134°57'1312.9
2016-May-28 03:33N 34°19' E 134°59'1414.0
2016-May-28 02:33N 34°32' E 135°05'8 8.0
2016-May-28 01:33N 34°36' E 134°57'10 9.0
2016-May-28 00:28N 34°37' E 134°45'7 0.8
2016-May-27 15:20N 34°42' E 134°50'0 0.0
2016-May-27 11:32N 34°42' E 134°50'0 0.0
2016-May-26 15:32N 34°43' E 134°50'0 0.0
2016-May-26 12:26N 34°42' E 134°50'0 0.0
2016-May-24 16:20N 34°42' E 134°50'0 0.0
2016-May-22 22:32N 34°42' E 134°50'0 0.0
2016-May-22 21:08N 34°42' E 134°50'0 0.0
2016-May-22 20:32N 34°42' E 134°50'0 0.0
2016-May-21 23:32N 34°43' E 134°50'4 1.3
2016-May-21 20:28N 34°40' E 134°47'0 0.0
2016-May-21 17:16N 34°40' E 134°47'0 0.1
2016-May-21 14:22N 34°40' E 134°47'0 0.1
2016-May-21 10:22N 34°40' E 134°47'0 0.0
2016-May-21 09:10N 34°40' E 134°47'0 0.1
2016-May-21 08:18N 34°40' E 134°47'4 5.4
2016-May-21 07:32N 34°36' E 134°44'10 8.9
2016-May-21 06:23N 34°36' E 134°56'7 8.8
2016-May-21 05:33N 34°35' E 135°05'6 6.0
2016-May-21 04:33N 34°30' E 135°07'1312.6
2016-May-21 03:33N 34°19' E 134°60'1110.8
2016-May-21 02:34N 34°08' E 134°59'1413.0
2016-May-21 01:28N 33°54' E 134°57'23710.6
2016-May-20 03:09N 34°41' E 139°38'812.3
2016-May-20 02:31N 34°43' E 139°47'1111.8
2016-May-20 01:33N 34°48' E 139°59'1211.4
2016-May-20 00:30N 34°54' E 140°12'1010.6
2016-May-19 23:33N 34°59' E 140°23'10 9.6
2016-May-19 22:30N 35°06' E 140°31'9 9.3
2016-May-19 21:31N 35°12' E 140°40'13 9.8
2016-May-19 20:13N 35°22' E 140°50'811.4
2016-May-19 19:33N 35°28' E 140°55'1211.9
2016-May-19 18:33N 35°37' E 141°04'1211.6
2016-May-19 17:33N 35°48' E 141°10'1212.0
2016-May-19 16:31N 35°60' E 141°15'1211.8
2016-May-19 15:32N 36°11' E 141°18'1212.1
2016-May-19 14:33N 36°22' E 141°23'  

Dump ship's entire track history